sensor_id;sensor_type;location;lat;lon;timestamp;pressure;altitude;pressure_sealevel;temperature;humidity
48530;BME280;34927;37.302;-121.982;2022-10-31T00:00:13;100957.0;;;24.98;37.03
48530;BME280;34927;37.302;-121.982;2022-10-31T00:01:18;100958.0;;;25.01;36.99
48530;BME280;34927;37.302;-121.982;2022-10-31T00:02:21;100959.0;;;25.04;36.94
48530;BME280;34927;37.302;-121.982;2022-10-31T00:03:26;100958.0;;;24.90;37.15
48530;BME280;34927;37.302;-121.982;2022-10-31T00:04:32;100959.0;;;25.22;36.70
48530;BME280;34927;37.302;-121.982;2022-10-31T00:05:39;100959.0;;;25.26;36.61
48530;BME280;34927;37.302;-121.982;2022-10-31T00:06:47;100957.0;;;25.20;36.77
48530;BME280;34927;37.302;-121.982;2022-10-31T00:07:52;100958.0;;;25.23;36.79
48530;BME280;34927;37.302;-121.982;2022-10-31T00:08:58;100960.0;;;25.13;36.95
48530;BME280;34927;37.302;-121.982;2022-10-31T00:10:02;100959.0;;;25.04;37.06
48530;BME280;34927;37.302;-121.982;2022-10-31T00:11:09;100961.0;;;25.03;37.25
48530;BME280;34927;37.302;-121.982;2022-10-31T00:12:16;100959.0;;;25.01;37.22
48530;BME280;34927;37.302;-121.982;2022-10-31T00:13:22;100959.0;;;25.16;36.91
48530;BME280;34927;37.302;-121.982;2022-10-31T00:14:26;100957.0;;;25.17;36.82
48530;BME280;34927;37.302;-121.982;2022-10-31T00:15:33;100957.0;;;25.22;36.72
48530;BME280;34927;37.302;-121.982;2022-10-31T00:16:36;100957.0;;;25.23;36.55
48530;BME280;34927;37.302;-121.982;2022-10-31T00:17:41;100957.0;;;25.26;36.64
48530;BME280;34927;37.302;-121.982;2022-10-31T00:18:49;100956.0;;;25.33;36.48
48530;BME280;34927;37.302;-121.982;2022-10-31T00:19:51;100957.0;;;25.30;36.51
48530;BME280;34927;37.302;-121.982;2022-10-31T00:21:00;100954.0;;;25.29;36.33
48530;BME280;34927;37.302;-121.982;2022-10-31T00:22:06;100955.0;;;25.37;36.38
48530;BME280;34927;37.302;-121.982;2022-10-31T00:23:12;100954.0;;;25.31;36.31
48530;BME280;34927;37.302;-121.982;2022-10-31T00:24:16;100953.0;;;25.10;36.68
48530;BME280;34927;37.302;-121.982;2022-10-31T00:25:21;100951.0;;;25.06;36.78
48530;BME280;34927;37.302;-121.982;2022-10-31T00:26:27;100951.0;;;25.04;36.77
48530;BME280;34927;37.302;-121.982;2022-10-31T00:27:32;100952.0;;;25.04;36.70
48530;BME280;34927;37.302;-121.982;2022-10-31T00:28:37;100953.0;;;25.07;36.62
48530;BME280;34927;37.302;-121.982;2022-10-31T00:29:42;100955.0;;;25.13;36.53
48530;BME280;34927;37.302;-121.982;2022-10-31T00:30:47;100957.0;;;24.99;36.72
48530;BME280;34927;37.302;-121.982;2022-10-31T00:31:52;100960.0;;;25.01;36.63
48530;BME280;34927;37.302;-121.982;2022-10-31T00:32:58;100960.0;;;24.97;36.73
48530;BME280;34927;37.302;-121.982;2022-10-31T00:34:02;100960.0;;;24.90;36.86
48530;BME280;34927;37.302;-121.982;2022-10-31T00:35:07;100963.0;;;24.91;36.75
48530;BME280;34927;37.302;-121.982;2022-10-31T00:36:13;100962.0;;;24.82;36.78
48530;BME280;34927;37.302;-121.982;2022-10-31T00:37:16;100963.0;;;24.62;37.03
48530;BME280;34927;37.302;-121.982;2022-10-31T00:38:22;100964.0;;;24.67;36.86
48530;BME280;34927;37.302;-121.982;2022-10-31T00:39:26;100966.0;;;24.67;36.80
48530;BME280;34927;37.302;-121.982;2022-10-31T00:40:31;100964.0;;;24.55;37.00
48530;BME280;34927;37.302;-121.982;2022-10-31T00:41:36;100964.0;;;24.53;36.98
48530;BME280;34927;37.302;-121.982;2022-10-31T00:42:42;100966.0;;;24.60;36.92
48530;BME280;34927;37.302;-121.982;2022-10-31T00:43:48;100967.0;;;24.57;36.93
48530;BME280;34927;37.302;-121.982;2022-10-31T00:44:52;100966.0;;;24.53;36.86
48530;BME280;34927;37.302;-121.982;2022-10-31T00:45:56;100964.0;;;24.42;36.96
48530;BME280;34927;37.302;-121.982;2022-10-31T00:47:01;100963.0;;;24.40;36.94
48530;BME280;34927;37.302;-121.982;2022-10-31T00:48:07;100962.0;;;24.40;36.90
48530;BME280;34927;37.302;-121.982;2022-10-31T00:49:12;100962.0;;;24.38;36.94
48530;BME280;34927;37.302;-121.982;2022-10-31T00:50:16;100959.0;;;24.41;36.90
48530;BME280;34927;37.302;-121.982;2022-10-31T00:51:21;100956.0;;;24.41;36.96
48530;BME280;34927;37.302;-121.982;2022-10-31T00:52:27;100959.0;;;24.50;36.83
48530;BME280;34927;37.302;-121.982;2022-10-31T00:53:32;100960.0;;;24.51;36.86
48530;BME280;34927;37.302;-121.982;2022-10-31T00:54:37;100962.0;;;24.70;36.60
48530;BME280;34927;37.302;-121.982;2022-10-31T00:55:41;100967.0;;;24.89;36.40
48530;BME280;34927;37.302;-121.982;2022-10-31T00:56:46;100966.0;;;24.75;36.66
48530;BME280;34927;37.302;-121.982;2022-10-31T00:57:51;100970.0;;;24.83;36.77
48530;BME280;34927;37.302;-121.982;2022-10-31T00:58:57;100968.0;;;24.67;36.94
48530;BME280;34927;37.302;-121.982;2022-10-31T01:00:04;100970.0;;;24.60;36.84
48530;BME280;34927;37.302;-121.982;2022-10-31T01:01:07;100970.0;;;24.79;36.65
48530;BME280;34927;37.302;-121.982;2022-10-31T01:02:11;100972.0;;;24.76;36.75
48530;BME280;34927;37.302;-121.982;2022-10-31T01:03:16;100972.0;;;24.70;36.77
48530;BME280;34927;37.302;-121.982;2022-10-31T01:04:21;100973.0;;;24.70;36.84
48530;BME280;34927;37.302;-121.982;2022-10-31T01:05:27;100974.0;;;24.70;36.74
48530;BME280;34927;37.302;-121.982;2022-10-31T01:06:31;100974.0;;;24.74;36.77
48530;BME280;34927;37.302;-121.982;2022-10-31T01:07:37;100975.0;;;24.75;36.68
48530;BME280;34927;37.302;-121.982;2022-10-31T01:08:42;100975.0;;;24.71;36.64
48530;BME280;34927;37.302;-121.982;2022-10-31T01:09:47;100978.0;;;24.65;36.74
48530;BME280;34927;37.302;-121.982;2022-10-31T01:12:07;100976.0;;;24.71;36.58
48530;BME280;34927;37.302;-121.982;2022-10-31T01:13:11;100976.0;;;24.69;36.61
48530;BME280;34927;37.302;-121.982;2022-10-31T01:14:16;100980.0;;;24.54;36.74
48530;BME280;34927;37.302;-121.982;2022-10-31T01:15:23;100979.0;;;24.43;36.77
48530;BME280;34927;37.302;-121.982;2022-10-31T01:16:27;100983.0;;;24.45;36.77
48530;BME280;34927;37.302;-121.982;2022-10-31T01:17:31;100983.0;;;24.45;36.76
48530;BME280;34927;37.302;-121.982;2022-10-31T01:18:36;100987.0;;;24.44;36.81
48530;BME280;34927;37.302;-121.982;2022-10-31T01:19:41;100990.0;;;24.42;36.92
48530;BME280;34927;37.302;-121.982;2022-10-31T01:20:47;100993.0;;;24.32;37.02
48530;BME280;34927;37.302;-121.982;2022-10-31T01:21:54;100989.0;;;24.35;37.10
48530;BME280;34927;37.302;-121.982;2022-10-31T01:22:57;100991.0;;;24.39;36.99
48530;BME280;34927;37.302;-121.982;2022-10-31T01:24:01;100990.0;;;24.36;36.99
48530;BME280;34927;37.302;-121.982;2022-10-31T01:25:11;100992.0;;;24.37;36.99
48530;BME280;34927;37.302;-121.982;2022-10-31T01:26:18;100994.0;;;24.32;37.13
48530;BME280;34927;37.302;-121.982;2022-10-31T01:27:22;100991.0;;;24.43;37.05
48530;BME280;34927;37.302;-121.982;2022-10-31T01:28:26;100991.0;;;24.37;37.07
48530;BME280;34927;37.302;-121.982;2022-10-31T01:29:32;100995.0;;;24.31;37.22
48530;BME280;34927;37.302;-121.982;2022-10-31T01:30:36;100995.0;;;24.46;36.99
48530;BME280;34927;37.302;-121.982;2022-10-31T01:31:42;100997.0;;;24.53;36.84
48530;BME280;34927;37.302;-121.982;2022-10-31T01:32:46;100997.0;;;24.48;36.95
48530;BME280;34927;37.302;-121.982;2022-10-31T01:33:51;100998.0;;;24.43;37.09
48530;BME280;34927;37.302;-121.982;2022-10-31T01:34:57;101003.0;;;24.39;37.19
48530;BME280;34927;37.302;-121.982;2022-10-31T01:36:10;101005.0;;;24.41;37.15
48530;BME280;34927;37.302;-121.982;2022-10-31T01:37:17;101004.0;;;24.42;37.22
48530;BME280;34927;37.302;-121.982;2022-10-31T01:38:22;101005.0;;;24.47;37.09
48530;BME280;34927;37.302;-121.982;2022-10-31T01:39:27;101004.0;;;24.41;37.14
48530;BME280;34927;37.302;-121.982;2022-10-31T01:40:32;101004.0;;;24.44;37.16
48530;BME280;34927;37.302;-121.982;2022-10-31T01:41:40;101004.0;;;24.47;37.13
48530;BME280;34927;37.302;-121.982;2022-10-31T01:42:47;101007.0;;;24.42;37.25
48530;BME280;34927;37.302;-121.982;2022-10-31T01:43:55;101006.0;;;24.34;37.33
48530;BME280;34927;37.302;-121.982;2022-10-31T01:45:02;101008.0;;;24.30;37.42
48530;BME280;34927;37.302;-121.982;2022-10-31T01:46:06;101008.0;;;24.34;37.45
48530;BME280;34927;37.302;-121.982;2022-10-31T01:47:15;101009.0;;;24.40;37.32
48530;BME280;34927;37.302;-121.982;2022-10-31T01:48:26;101008.0;;;24.38;37.29
48530;BME280;34927;37.302;-121.982;2022-10-31T01:49:35;101008.0;;;24.43;37.22
48530;BME280;34927;37.302;-121.982;2022-10-31T01:50:43;101012.0;;;24.32;37.40
48530;BME280;34927;37.302;-121.982;2022-10-31T01:51:55;101012.0;;;24.38;37.36
48530;BME280;34927;37.302;-121.982;2022-10-31T01:53:02;101009.0;;;24.51;37.19
48530;BME280;34927;37.302;-121.982;2022-10-31T01:54:09;101012.0;;;24.37;37.49
48530;BME280;34927;37.302;-121.982;2022-10-31T01:55:20;101013.0;;;24.28;37.73
48530;BME280;34927;37.302;-121.982;2022-10-31T01:56:27;101011.0;;;24.30;37.63
48530;BME280;34927;37.302;-121.982;2022-10-31T01:57:33;101012.0;;;24.21;37.79
48530;BME280;34927;37.302;-121.982;2022-10-31T01:58:37;101013.0;;;24.28;37.72
48530;BME280;34927;37.302;-121.982;2022-10-31T01:59:44;101012.0;;;24.26;37.95
48530;BME280;34927;37.302;-121.982;2022-10-31T02:00:56;101013.0;;;24.17;37.98
48530;BME280;34927;37.302;-121.982;2022-10-31T02:02:01;101012.0;;;24.15;38.03
48530;BME280;34927;37.302;-121.982;2022-10-31T02:03:07;101012.0;;;24.16;37.96
48530;BME280;34927;37.302;-121.982;2022-10-31T02:04:11;101013.0;;;24.13;38.11
48530;BME280;34927;37.302;-121.982;2022-10-31T02:05:18;101012.0;;;24.15;38.05
48530;BME280;34927;37.302;-121.982;2022-10-31T02:06:27;101014.0;;;24.12;38.08
48530;BME280;34927;37.302;-121.982;2022-10-31T02:07:41;101015.0;;;24.15;38.05
48530;BME280;34927;37.302;-121.982;2022-10-31T02:08:46;101018.0;;;24.11;38.05
48530;BME280;34927;37.302;-121.982;2022-10-31T02:09:53;101020.0;;;24.08;38.18
48530;BME280;34927;37.302;-121.982;2022-10-31T02:10:58;101021.0;;;24.07;38.15
48530;BME280;34927;37.302;-121.982;2022-10-31T02:12:02;101022.0;;;24.10;38.13
48530;BME280;34927;37.302;-121.982;2022-10-31T02:13:08;101020.0;;;24.11;38.06
48530;BME280;34927;37.302;-121.982;2022-10-31T02:14:11;101021.0;;;24.18;38.19
48530;BME280;34927;37.302;-121.982;2022-10-31T02:15:17;101023.0;;;24.26;38.18
48530;BME280;34927;37.302;-121.982;2022-10-31T02:16:22;101022.0;;;24.29;38.35
48530;BME280;34927;37.302;-121.982;2022-10-31T02:17:26;101022.0;;;24.34;38.47
48530;BME280;34927;37.302;-121.982;2022-10-31T02:18:32;101021.0;;;24.39;38.64
48530;BME280;34927;37.302;-121.982;2022-10-31T02:19:44;101020.0;;;24.42;38.57
48530;BME280;34927;37.302;-121.982;2022-10-31T02:21:00;101019.0;;;24.46;38.60
48530;BME280;34927;37.302;-121.982;2022-10-31T02:22:11;101017.0;;;24.44;38.67
48530;BME280;34927;37.302;-121.982;2022-10-31T02:23:43;101017.0;;;24.45;38.66
48530;BME280;34927;37.302;-121.982;2022-10-31T02:25:03;101018.0;;;24.48;38.64
48530;BME280;34927;37.302;-121.982;2022-10-31T02:26:26;101019.0;;;24.50;38.47
48530;BME280;34927;37.302;-121.982;2022-10-31T02:29:07;101023.0;;;24.55;38.50
48530;BME280;34927;37.302;-121.982;2022-10-31T02:30:19;101022.0;;;24.36;38.74
48530;BME280;34927;37.302;-121.982;2022-10-31T02:31:34;101022.0;;;24.35;38.93
48530;BME280;34927;37.302;-121.982;2022-10-31T02:32:52;101020.0;;;24.32;38.94
48530;BME280;34927;37.302;-121.982;2022-10-31T02:34:00;101020.0;;;24.30;38.98
48530;BME280;34927;37.302;-121.982;2022-10-31T02:35:13;101021.0;;;23.97;39.83
48530;BME280;34927;37.302;-121.982;2022-10-31T02:36:24;101022.0;;;24.06;39.64
48530;BME280;34927;37.302;-121.982;2022-10-31T02:37:37;101024.0;;;23.92;39.92
48530;BME280;34927;37.302;-121.982;2022-10-31T02:38:50;101024.0;;;23.98;39.60
48530;BME280;34927;37.302;-121.982;2022-10-31T02:40:03;101025.0;;;24.05;39.57
48530;BME280;34927;37.302;-121.982;2022-10-31T02:41:18;101028.0;;;24.07;39.46
48530;BME280;34927;37.302;-121.982;2022-10-31T02:42:29;101027.0;;;24.11;39.49
48530;BME280;34927;37.302;-121.982;2022-10-31T02:43:43;101028.0;;;24.09;39.55
48530;BME280;34927;37.302;-121.982;2022-10-31T02:44:53;101031.0;;;23.97;39.86
48530;BME280;34927;37.302;-121.982;2022-10-31T02:46:00;101033.0;;;23.90;39.90
48530;BME280;34927;37.302;-121.982;2022-10-31T02:47:11;101038.0;;;23.90;40.02
48530;BME280;34927;37.302;-121.982;2022-10-31T02:48:20;101041.0;;;23.88;39.81
48530;BME280;34927;37.302;-121.982;2022-10-31T02:49:31;101042.0;;;23.96;39.65
48530;BME280;34927;37.302;-121.982;2022-10-31T02:50:40;101042.0;;;23.94;39.64
48530;BME280;34927;37.302;-121.982;2022-10-31T02:51:47;101038.0;;;24.02;39.41
48530;BME280;34927;37.302;-121.982;2022-10-31T02:52:52;101043.0;;;23.86;39.69
48530;BME280;34927;37.302;-121.982;2022-10-31T02:53:57;101042.0;;;23.87;39.72
48530;BME280;34927;37.302;-121.982;2022-10-31T02:55:10;101042.0;;;23.88;39.73
48530;BME280;34927;37.302;-121.982;2022-10-31T02:56:18;101044.0;;;23.91;39.54
48530;BME280;34927;37.302;-121.982;2022-10-31T02:57:24;101042.0;;;23.99;39.36
48530;BME280;34927;37.302;-121.982;2022-10-31T02:58:35;101041.0;;;23.80;39.79
48530;BME280;34927;37.302;-121.982;2022-10-31T02:59:49;101042.0;;;23.93;39.59
48530;BME280;34927;37.302;-121.982;2022-10-31T03:01:14;101042.0;;;23.93;39.56
48530;BME280;34927;37.302;-121.982;2022-10-31T03:02:31;101038.0;;;23.66;40.53
48530;BME280;34927;37.302;-121.982;2022-10-31T03:03:50;101036.0;;;23.50;41.07
48530;BME280;34927;37.302;-121.982;2022-10-31T03:05:09;101033.0;;;23.39;41.52
48530;BME280;34927;37.302;-121.982;2022-10-31T03:06:21;101031.0;;;23.40;41.52
48530;BME280;34927;37.302;-121.982;2022-10-31T03:07:32;101032.0;;;23.49;41.29
48530;BME280;34927;37.302;-121.982;2022-10-31T03:08:46;101033.0;;;23.69;41.01
48530;BME280;34927;37.302;-121.982;2022-10-31T03:10:05;101034.0;;;23.62;41.07
48530;BME280;34927;37.302;-121.982;2022-10-31T03:11:17;101038.0;;;23.76;40.89
48530;BME280;34927;37.302;-121.982;2022-10-31T03:12:29;101039.0;;;23.72;40.93
48530;BME280;34927;37.302;-121.982;2022-10-31T03:13:43;101041.0;;;23.65;41.17
48530;BME280;34927;37.302;-121.982;2022-10-31T03:14:55;101043.0;;;23.65;41.18
48530;BME280;34927;37.302;-121.982;2022-10-31T03:16:08;101042.0;;;23.64;41.23
48530;BME280;34927;37.302;-121.982;2022-10-31T03:17:18;101047.0;;;23.68;41.25
48530;BME280;34927;37.302;-121.982;2022-10-31T03:18:29;101047.0;;;23.55;41.39
48530;BME280;34927;37.302;-121.982;2022-10-31T03:19:41;101047.0;;;23.42;41.72
48530;BME280;34927;37.302;-121.982;2022-10-31T03:20:52;101047.0;;;23.37;41.82
48530;BME280;34927;37.302;-121.982;2022-10-31T03:21:59;101046.0;;;23.57;41.39
48530;BME280;34927;37.302;-121.982;2022-10-31T03:23:10;101049.0;;;23.70;41.18
48530;BME280;34927;37.302;-121.982;2022-10-31T03:24:16;101050.0;;;23.85;40.86
48530;BME280;34927;37.302;-121.982;2022-10-31T03:25:23;101050.0;;;23.84;40.84
48530;BME280;34927;37.302;-121.982;2022-10-31T03:26:28;101049.0;;;23.73;41.08
48530;BME280;34927;37.302;-121.982;2022-10-31T03:27:36;101050.0;;;23.88;40.77
48530;BME280;34927;37.302;-121.982;2022-10-31T03:28:46;101047.0;;;23.83;40.89
48530;BME280;34927;37.302;-121.982;2022-10-31T03:29:54;101046.0;;;23.65;41.10
48530;BME280;34927;37.302;-121.982;2022-10-31T03:31:04;101045.0;;;23.49;41.44
48530;BME280;34927;37.302;-121.982;2022-10-31T03:32:15;101045.0;;;23.46;41.45
48530;BME280;34927;37.302;-121.982;2022-10-31T03:33:24;101042.0;;;23.42;41.61
48530;BME280;34927;37.302;-121.982;2022-10-31T03:34:32;101041.0;;;23.26;41.72
48530;BME280;34927;37.302;-121.982;2022-10-31T03:35:37;101044.0;;;23.34;41.68
48530;BME280;34927;37.302;-121.982;2022-10-31T03:36:42;101042.0;;;23.26;41.86
48530;BME280;34927;37.302;-121.982;2022-10-31T03:37:48;101043.0;;;23.23;41.92
48530;BME280;34927;37.302;-121.982;2022-10-31T03:38:52;101044.0;;;23.22;41.97
48530;BME280;34927;37.302;-121.982;2022-10-31T03:39:59;101042.0;;;23.39;41.85
48530;BME280;34927;37.302;-121.982;2022-10-31T03:41:10;101045.0;;;23.55;41.26
48530;BME280;34927;37.302;-121.982;2022-10-31T03:42:21;101042.0;;;23.36;41.62
48530;BME280;34927;37.302;-121.982;2022-10-31T03:43:30;101041.0;;;23.45;41.48
48530;BME280;34927;37.302;-121.982;2022-10-31T03:44:40;101045.0;;;23.49;41.42
48530;BME280;34927;37.302;-121.982;2022-10-31T03:45:47;101046.0;;;23.54;41.39
48530;BME280;34927;37.302;-121.982;2022-10-31T03:46:51;101047.0;;;23.60;41.17
48530;BME280;34927;37.302;-121.982;2022-10-31T03:47:57;101048.0;;;23.61;41.25
48530;BME280;34927;37.302;-121.982;2022-10-31T03:49:02;101052.0;;;23.62;41.21
48530;BME280;34927;37.302;-121.982;2022-10-31T03:50:08;101056.0;;;23.67;41.17
48530;BME280;34927;37.302;-121.982;2022-10-31T03:51:18;101055.0;;;23.46;41.65
48530;BME280;34927;37.302;-121.982;2022-10-31T03:52:28;101056.0;;;23.42;41.79
48530;BME280;34927;37.302;-121.982;2022-10-31T03:53:41;101059.0;;;23.50;41.83
48530;BME280;34927;37.302;-121.982;2022-10-31T03:54:51;101062.0;;;23.73;41.08
48530;BME280;34927;37.302;-121.982;2022-10-31T03:56:01;101065.0;;;23.50;41.39
48530;BME280;34927;37.302;-121.982;2022-10-31T03:57:13;101067.0;;;23.58;41.11
48530;BME280;34927;37.302;-121.982;2022-10-31T03:58:25;101070.0;;;23.71;40.76
48530;BME280;34927;37.302;-121.982;2022-10-31T03:59:35;101073.0;;;23.65;40.73
48530;BME280;34927;37.302;-121.982;2022-10-31T04:00:44;101072.0;;;23.70;40.90
48530;BME280;34927;37.302;-121.982;2022-10-31T04:01:55;101070.0;;;23.79;40.46
48530;BME280;34927;37.302;-121.982;2022-10-31T04:03:06;101070.0;;;23.54;40.83
48530;BME280;34927;37.302;-121.982;2022-10-31T04:04:12;101069.0;;;23.49;40.76
48530;BME280;34927;37.302;-121.982;2022-10-31T04:05:17;101072.0;;;23.30;41.08
48530;BME280;34927;37.302;-121.982;2022-10-31T04:06:23;101073.0;;;23.23;41.21
48530;BME280;34927;37.302;-121.982;2022-10-31T04:07:29;101071.0;;;23.31;40.98
48530;BME280;34927;37.302;-121.982;2022-10-31T04:08:39;101071.0;;;23.30;41.09
48530;BME280;34927;37.302;-121.982;2022-10-31T04:09:48;101070.0;;;23.22;41.25
48530;BME280;34927;37.302;-121.982;2022-10-31T04:10:53;101069.0;;;23.29;41.14
48530;BME280;34927;37.302;-121.982;2022-10-31T04:12:00;101065.0;;;23.19;41.32
48530;BME280;34927;37.302;-121.982;2022-10-31T04:13:09;101061.0;;;23.30;41.02
48530;BME280;34927;37.302;-121.982;2022-10-31T04:14:16;101058.0;;;23.12;41.43
48530;BME280;34927;37.302;-121.982;2022-10-31T04:15:22;101058.0;;;23.21;41.31
48530;BME280;34927;37.302;-121.982;2022-10-31T04:16:27;101058.0;;;23.22;41.19
48530;BME280;34927;37.302;-121.982;2022-10-31T04:17:34;101057.0;;;23.16;41.32
48530;BME280;34927;37.302;-121.982;2022-10-31T04:18:41;101060.0;;;23.25;41.18
48530;BME280;34927;37.302;-121.982;2022-10-31T04:19:47;101062.0;;;23.23;41.23
48530;BME280;34927;37.302;-121.982;2022-10-31T04:21:00;101062.0;;;23.30;41.03
48530;BME280;34927;37.302;-121.982;2022-10-31T04:22:07;101063.0;;;23.12;41.56
48530;BME280;34927;37.302;-121.982;2022-10-31T04:23:18;101060.0;;;23.22;41.25
48530;BME280;34927;37.302;-121.982;2022-10-31T04:24:22;101060.0;;;23.15;41.42
48530;BME280;34927;37.302;-121.982;2022-10-31T04:25:26;101059.0;;;23.15;41.60
48530;BME280;34927;37.302;-121.982;2022-10-31T04:26:31;101061.0;;;23.16;41.67
48530;BME280;34927;37.302;-121.982;2022-10-31T04:27:36;101063.0;;;23.10;41.67
48530;BME280;34927;37.302;-121.982;2022-10-31T04:28:42;101064.0;;;22.96;41.92
48530;BME280;34927;37.302;-121.982;2022-10-31T04:29:47;101064.0;;;23.14;41.56
48530;BME280;34927;37.302;-121.982;2022-10-31T04:30:52;101064.0;;;23.13;41.51
48530;BME280;34927;37.302;-121.982;2022-10-31T04:31:57;101065.0;;;23.12;41.48
48530;BME280;34927;37.302;-121.982;2022-10-31T04:33:02;101065.0;;;23.05;41.73
48530;BME280;34927;37.302;-121.982;2022-10-31T04:34:07;101068.0;;;23.15;41.46
48530;BME280;34927;37.302;-121.982;2022-10-31T04:35:11;101068.0;;;23.02;41.68
48530;BME280;34927;37.302;-121.982;2022-10-31T04:36:16;101067.0;;;23.06;41.55
48530;BME280;34927;37.302;-121.982;2022-10-31T04:37:21;101065.0;;;23.04;41.64
48530;BME280;34927;37.302;-121.982;2022-10-31T04:38:27;101066.0;;;23.01;41.70
48530;BME280;34927;37.302;-121.982;2022-10-31T04:39:31;101067.0;;;23.03;41.79
48530;BME280;34927;37.302;-121.982;2022-10-31T04:40:36;101066.0;;;22.84;41.97
48530;BME280;34927;37.302;-121.982;2022-10-31T04:41:42;101064.0;;;22.88;41.91
48530;BME280;34927;37.302;-121.982;2022-10-31T04:42:46;101061.0;;;22.94;41.78
48530;BME280;34927;37.302;-121.982;2022-10-31T04:43:52;101058.0;;;22.98;41.74
48530;BME280;34927;37.302;-121.982;2022-10-31T04:44:56;101060.0;;;22.76;42.14
48530;BME280;34927;37.302;-121.982;2022-10-31T04:46:02;101060.0;;;22.84;42.08
48530;BME280;34927;37.302;-121.982;2022-10-31T04:47:06;101060.0;;;22.88;42.02
48530;BME280;34927;37.302;-121.982;2022-10-31T04:48:12;101060.0;;;22.78;42.06
48530;BME280;34927;37.302;-121.982;2022-10-31T04:49:16;101062.0;;;22.83;41.95
48530;BME280;34927;37.302;-121.982;2022-10-31T04:50:22;101064.0;;;22.95;41.68
48530;BME280;34927;37.302;-121.982;2022-10-31T04:51:26;101065.0;;;22.97;41.74
48530;BME280;34927;37.302;-121.982;2022-10-31T04:52:32;101066.0;;;22.93;41.72
48530;BME280;34927;37.302;-121.982;2022-10-31T04:53:36;101067.0;;;22.91;41.87
48530;BME280;34927;37.302;-121.982;2022-10-31T04:54:42;101067.0;;;22.91;41.79
48530;BME280;34927;37.302;-121.982;2022-10-31T04:55:46;101066.0;;;22.74;42.12
48530;BME280;34927;37.302;-121.982;2022-10-31T04:56:51;101066.0;;;22.85;41.84
48530;BME280;34927;37.302;-121.982;2022-10-31T04:57:57;101067.0;;;22.89;41.88
48530;BME280;34927;37.302;-121.982;2022-10-31T04:59:02;101067.0;;;22.91;41.78
48530;BME280;34927;37.302;-121.982;2022-10-31T05:00:07;101069.0;;;22.89;41.76
48530;BME280;34927;37.302;-121.982;2022-10-31T05:01:12;101069.0;;;22.86;41.91
48530;BME280;34927;37.302;-121.982;2022-10-31T05:02:17;101068.0;;;22.89;41.76
48530;BME280;34927;37.302;-121.982;2022-10-31T05:03:22;101070.0;;;22.88;41.79
48530;BME280;34927;37.302;-121.982;2022-10-31T05:04:26;101068.0;;;22.84;41.87
48530;BME280;34927;37.302;-121.982;2022-10-31T05:05:32;101068.0;;;22.82;41.94
48530;BME280;34927;37.302;-121.982;2022-10-31T05:06:37;101067.0;;;22.82;41.88
48530;BME280;34927;37.302;-121.982;2022-10-31T05:07:42;101070.0;;;22.90;41.71
48530;BME280;34927;37.302;-121.982;2022-10-31T05:08:47;101066.0;;;23.04;41.37
48530;BME280;34927;37.302;-121.982;2022-10-31T05:09:51;101065.0;;;23.03;41.48
48530;BME280;34927;37.302;-121.982;2022-10-31T05:11:00;101066.0;;;22.95;41.92
48530;BME280;34927;37.302;-121.982;2022-10-31T05:12:07;101064.0;;;22.63;42.92
48530;BME280;34927;37.302;-121.982;2022-10-31T05:13:12;101064.0;;;22.43;43.25
48530;BME280;34927;37.302;-121.982;2022-10-31T05:14:16;101066.0;;;22.39;43.43
48530;BME280;34927;37.302;-121.982;2022-10-31T05:15:23;101069.0;;;22.32;43.57
48530;BME280;34927;37.302;-121.982;2022-10-31T05:16:27;101071.0;;;22.62;42.94
48530;BME280;34927;37.302;-121.982;2022-10-31T05:17:32;101072.0;;;22.47;43.21
48530;BME280;34927;37.302;-121.982;2022-10-31T05:18:37;101072.0;;;22.41;43.36
48530;BME280;34927;37.302;-121.982;2022-10-31T05:19:42;101075.0;;;22.41;43.52
48530;BME280;34927;37.302;-121.982;2022-10-31T05:20:46;101075.0;;;22.50;43.04
48530;BME280;34927;37.302;-121.982;2022-10-31T05:21:51;101074.0;;;22.50;43.14
48530;BME280;34927;37.302;-121.982;2022-10-31T05:22:59;101074.0;;;22.53;42.81
48530;BME280;34927;37.302;-121.982;2022-10-31T05:24:01;101072.0;;;22.50;42.68
48530;BME280;34927;37.302;-121.982;2022-10-31T05:25:07;101074.0;;;22.55;42.62
48530;BME280;34927;37.302;-121.982;2022-10-31T05:26:11;101072.0;;;22.52;42.41
48530;BME280;34927;37.302;-121.982;2022-10-31T05:27:17;101071.0;;;22.51;42.39
48530;BME280;34927;37.302;-121.982;2022-10-31T05:28:21;101067.0;;;22.44;42.55
48530;BME280;34927;37.302;-121.982;2022-10-31T05:29:26;101066.0;;;22.50;42.37
48530;BME280;34927;37.302;-121.982;2022-10-31T05:30:32;101068.0;;;22.57;42.23
48530;BME280;34927;37.302;-121.982;2022-10-31T05:31:36;101071.0;;;22.56;42.25
48530;BME280;34927;37.302;-121.982;2022-10-31T05:32:43;101070.0;;;22.52;42.28
48530;BME280;34927;37.302;-121.982;2022-10-31T05:33:47;101073.0;;;22.54;42.15
48530;BME280;34927;37.302;-121.982;2022-10-31T05:34:52;101074.0;;;22.62;42.11
48530;BME280;34927;37.302;-121.982;2022-10-31T05:35:56;101075.0;;;22.84;42.46
48530;BME280;34927;37.302;-121.982;2022-10-31T05:37:02;101076.0;;;22.80;42.79
48530;BME280;34927;37.302;-121.982;2022-10-31T05:38:06;101076.0;;;22.66;43.08
48530;BME280;34927;37.302;-121.982;2022-10-31T05:39:11;101076.0;;;22.36;44.17
48530;BME280;34927;37.302;-121.982;2022-10-31T05:40:18;101074.0;;;22.23;44.37
48530;BME280;34927;37.302;-121.982;2022-10-31T05:41:21;101075.0;;;22.30;43.89
48530;BME280;34927;37.302;-121.982;2022-10-31T05:42:26;101076.0;;;22.57;43.40
48530;BME280;34927;37.302;-121.982;2022-10-31T05:43:31;101078.0;;;22.58;43.51
48530;BME280;34927;37.302;-121.982;2022-10-31T05:44:37;101079.0;;;22.35;44.16